createdAt,value
2017-12-29T00:01:31.862Z,89.10
2017-12-29T00:03:59.453Z,89.90
2017-12-29T00:06:27.050Z,89.90
2017-12-29T00:08:55.022Z,90.10
2017-12-29T00:11:22.613Z,90.30
2017-12-29T00:13:50.193Z,90.30
2017-12-29T00:16:18.596Z,90.60
2017-12-29T00:18:46.947Z,90.60
2017-12-29T00:21:14.550Z,90.60
2017-12-29T00:23:42.162Z,90.60
2017-12-29T00:26:09.787Z,90.70
2017-12-29T00:28:37.369Z,90.80
2017-12-29T00:31:05.792Z,90.70
2017-12-29T00:33:37.124Z,90.50
2017-12-29T00:36:04.716Z,90.60
2017-12-29T00:38:33.099Z,90.40
2017-12-29T00:41:01.462Z,90.40
2017-12-29T00:43:29.816Z,90.50
2017-12-29T00:45:57.412Z,90.50
2017-12-29T00:48:25.756Z,90.20
2017-12-29T00:50:53.364Z,90.20
2017-12-29T00:53:20.981Z,90.20
2017-12-29T00:55:48.602Z,89.80
2017-12-29T00:58:16.193Z,89.70
2017-12-29T01:00:43.776Z,89.80
2017-12-29T01:03:11.371Z,89.60
2017-12-29T01:05:38.963Z,89.80
2017-12-29T01:08:06.543Z,89.90
2017-12-29T01:10:34.136Z,89.80
2017-12-29T01:13:02.507Z,88.80
2017-12-29T01:15:30.907Z,88.50
2017-12-29T01:17:58.503Z,88.40
2017-12-29T01:20:26.860Z,89.90
2017-12-29T01:22:54.457Z,89.30
2017-12-29T01:25:22.040Z,90.00
2017-12-29T01:27:49.625Z,89.90
2017-12-29T01:30:17.219Z,89.90
2017-12-29T01:32:44.823Z,90.10
2017-12-29T01:35:12.433Z,90.00
2017-12-29T01:37:40.050Z,89.90
2017-12-29T01:40:07.635Z,89.60
2017-12-29T01:42:35.262Z,89.90
2017-12-29T01:45:02.844Z,89.70
2017-12-29T01:50:30.602Z,90.20
2017-12-29T01:52:58.216Z,90.20
2017-12-29T01:55:25.821Z,90.00
2017-12-29T01:57:53.425Z,90.30
2017-12-29T02:00:21.028Z,90.00
2017-12-29T02:02:48.616Z,89.80
2017-12-29T02:05:16.235Z,90.00
2017-12-29T02:07:43.830Z,90.00
2017-12-29T02:10:11.466Z,90.00
2017-12-29T02:12:39.052Z,90.20
2017-12-29T02:15:06.646Z,90.40
2017-12-29T02:17:34.269Z,90.50
2017-12-29T02:20:01.867Z,90.70
2017-12-29T02:22:29.493Z,90.80
2017-12-29T02:24:57.081Z,90.90
2017-12-29T02:27:25.426Z,91.20
2017-12-29T02:29:53.036Z,91.20
2017-12-29T02:32:21.392Z,91.40
2017-12-29T02:34:48.967Z,91.40
2017-12-29T02:37:17.312Z,90.60
2017-12-29T02:39:44.889Z,90.60
2017-12-29T02:42:13.289Z,90.60
2017-12-29T02:44:40.895Z,90.60
2017-12-29T02:47:09.235Z,90.10
2017-12-29T02:49:36.826Z,89.70
2017-12-29T02:52:04.404Z,89.40
2017-12-29T02:54:31.997Z,89.90
2017-12-29T02:57:00.344Z,88.70
2017-12-29T02:59:27.974Z,88.80
2017-12-29T03:01:55.575Z,88.30
2017-12-29T03:04:23.145Z,88.50
2017-12-29T03:06:50.727Z,88.80
2017-12-29T03:09:19.101Z,89.20
2017-12-29T03:11:47.445Z,89.50
2017-12-29T03:14:15.038Z,89.50
2017-12-29T03:16:43.419Z,89.90
2017-12-29T03:19:11.772Z,90.10
2017-12-29T03:21:39.371Z,90.10
2017-12-29T03:24:06.958Z,90.30
2017-12-29T03:26:34.550Z,90.40
2017-12-29T03:29:02.138Z,90.70
2017-12-29T03:31:30.504Z,91.00
2017-12-29T03:33:58.879Z,91.10
2017-12-29T03:36:26.484Z,90.90
2017-12-29T03:38:54.065Z,90.90
2017-12-29T03:41:21.658Z,90.90
2017-12-29T03:43:49.240Z,90.90
2017-12-29T03:46:17.616Z,91.00
2017-12-29T03:48:45.992Z,91.20
2017-12-29T03:51:14.385Z,91.20
2017-12-29T03:53:41.985Z,91.20
2017-12-29T03:56:09.586Z,91.60
2017-12-29T03:58:37.940Z,91.40
2017-12-29T04:01:05.558Z,91.30
2017-12-29T04:03:33.142Z,91.20
2017-12-29T04:06:00.728Z,91.40
2017-12-29T04:08:28.354Z,91.50
2017-12-29T04:10:55.945Z,91.50
2017-12-29T04:13:23.532Z,91.50
2017-12-29T04:15:51.899Z,91.30
2017-12-29T04:18:19.489Z,91.30
2017-12-29T04:20:47.850Z,91.50
2017-12-29T04:23:16.203Z,91.80
2017-12-29T04:25:43.815Z,91.50
2017-12-29T04:28:11.414Z,91.70
2017-12-29T04:30:38.995Z,92.00
2017-12-29T04:33:06.578Z,91.80
2017-12-29T04:35:34.930Z,92.00
2017-12-29T04:38:02.516Z,92.00
2017-12-29T04:40:30.881Z,92.10
2017-12-29T04:42:58.511Z,92.10
2017-12-29T04:45:26.110Z,91.90
2017-12-29T04:47:53.701Z,91.50
2017-12-29T04:50:21.303Z,91.10
2017-12-29T04:52:48.894Z,91.10
2017-12-29T04:55:17.256Z,90.50
2017-12-29T04:57:44.832Z,90.50
2017-12-29T05:00:13.597Z,90.30
2017-12-29T05:02:41.181Z,90.60
2017-12-29T05:05:09.535Z,90.10
2017-12-29T05:07:41.381Z,90.10
2017-12-29T05:10:08.983Z,89.40
2017-12-29T05:12:36.554Z,89.20
2017-12-29T05:15:04.900Z,88.80
2017-12-29T05:17:32.507Z,88.80
2017-12-29T05:20:00.090Z,88.20
2017-12-29T05:22:27.680Z,87.90
2017-12-29T05:24:55.266Z,88.10
2017-12-29T05:27:23.634Z,87.70
2017-12-29T05:29:51.218Z,87.60
2017-12-29T05:32:19.561Z,87.30
2017-12-29T05:34:47.183Z,87.30
2017-12-29T05:37:14.768Z,86.70
2017-12-29T05:39:42.391Z,86.40
2017-12-29T05:42:09.984Z,87.10
2017-12-29T05:44:37.584Z,86.90
2017-12-29T05:47:05.174Z,87.20
2017-12-29T05:49:32.795Z,87.60
2017-12-29T05:52:00.422Z,86.50
2017-12-29T05:54:28.022Z,86.70
2017-12-29T05:56:55.618Z,86.40
2017-12-29T05:59:23.208Z,87.50
2017-12-29T06:01:50.797Z,86.70
2017-12-29T06:04:18.376Z,87.00
2017-12-29T06:06:46.735Z,87.10
2017-12-29T06:09:14.344Z,87.10
2017-12-29T06:11:41.945Z,86.70
2017-12-29T06:14:09.549Z,87.40
2017-12-29T06:16:37.159Z,87.40
2017-12-29T06:19:04.753Z,87.10
2017-12-29T06:21:33.115Z,87.10
2017-12-29T06:24:00.718Z,87.00
2017-12-29T06:26:28.355Z,86.90
2017-12-29T06:29:17.428Z,86.40
2017-12-29T06:31:45.803Z,86.10
2017-12-29T06:34:14.164Z,86.40
2017-12-29T06:36:41.756Z,86.40
2017-12-29T06:39:09.363Z,86.10
2017-12-29T06:41:36.949Z,86.40
2017-12-29T06:44:04.543Z,86.40
2017-12-29T06:46:32.148Z,86.70
2017-12-29T06:48:59.755Z,86.80
2017-12-29T06:51:28.107Z,86.80
2017-12-29T06:53:55.701Z,86.80
2017-12-29T06:56:23.319Z,86.80
2017-12-29T06:58:50.897Z,87.20
2017-12-29T07:01:18.532Z,87.30
2017-12-29T07:03:46.129Z,87.30
2017-12-29T07:06:14.533Z,87.50
2017-12-29T07:08:42.118Z,87.50
2017-12-29T07:11:09.735Z,87.30
2017-12-29T07:13:38.102Z,88.30
2017-12-29T07:16:05.714Z,88.30
2017-12-29T07:18:33.318Z,87.70
2017-12-29T07:21:00.919Z,87.60
2017-12-29T07:23:28.541Z,87.10
2017-12-29T07:25:56.165Z,87.00
2017-12-29T07:28:23.762Z,87.60
2017-12-29T07:30:51.367Z,86.70
2017-12-29T07:33:18.964Z,86.60
2017-12-29T07:35:46.570Z,87.20
2017-12-29T07:38:14.182Z,87.70
2017-12-29T07:40:41.788Z,87.80
2017-12-29T07:43:10.143Z,88.10
2017-12-29T07:45:37.748Z,88.00
2017-12-29T07:48:05.355Z,88.20
2017-12-29T07:50:32.955Z,87.50
2017-12-29T07:53:01.314Z,87.80
2017-12-29T07:55:29.690Z,87.80
2017-12-29T07:57:58.076Z,87.70
2017-12-29T08:00:26.439Z,86.90
2017-12-29T08:02:54.052Z,87.50
2017-12-29T08:05:21.648Z,86.50
2017-12-29T08:07:49.254Z,86.70
2017-12-29T08:10:17.627Z,86.90
2017-12-29T08:12:45.994Z,86.30
2017-12-29T08:15:14.424Z,86.40
2017-12-29T08:17:42.032Z,86.40
2017-12-29T08:20:09.694Z,85.50
2017-12-29T08:22:37.291Z,86.10
2017-12-29T08:25:04.898Z,85.40
2017-12-29T08:27:32.536Z,85.90
2017-12-29T08:30:00.136Z,85.80
2017-12-29T08:32:27.788Z,84.90
2017-12-29T08:34:55.394Z,84.50
2017-12-29T08:37:22.998Z,84.20
2017-12-29T08:39:50.588Z,84.30
2017-12-29T08:42:18.189Z,84.30
2017-12-29T08:44:45.778Z,83.90
2017-12-29T08:47:13.369Z,84.50
2017-12-29T08:49:41.762Z,82.70
2017-12-29T08:52:10.130Z,83.30
2017-12-29T08:54:38.479Z,83.20
2017-12-29T08:57:06.080Z,83.20
2017-12-29T08:59:34.440Z,82.00
2017-12-29T09:02:02.086Z,82.00
2017-12-29T09:04:29.676Z,82.10
2017-12-29T09:06:58.055Z,80.90
2017-12-29T09:09:26.410Z,80.00
2017-12-29T09:11:53.983Z,79.90
2017-12-29T09:14:22.350Z,80.20
2017-12-29T09:16:49.931Z,80.20
2017-12-29T09:19:18.292Z,79.60
2017-12-29T09:21:45.915Z,79.60
2017-12-29T09:24:13.590Z,79.10
2017-12-29T09:26:41.180Z,78.70
2017-12-29T09:29:08.752Z,78.10
2017-12-29T09:31:37.119Z,78.30
2017-12-29T09:34:04.714Z,78.30
2017-12-29T09:36:32.354Z,78.10
2017-12-29T09:39:00.723Z,78.50
2017-12-29T09:41:28.337Z,78.50
2017-12-29T09:43:55.970Z,78.20
2017-12-29T09:46:24.370Z,78.10
2017-12-29T09:48:51.948Z,78.00
2017-12-29T09:51:19.529Z,77.20
2017-12-29T09:53:47.882Z,78.10
2017-12-29T09:56:15.481Z,78.10
2017-12-29T09:58:43.138Z,77.10
2017-12-29T10:01:10.719Z,77.70
2017-12-29T10:03:39.097Z,78.40
2017-12-29T10:06:07.479Z,78.90
2017-12-29T10:08:35.834Z,78.00
2017-12-29T10:11:03.456Z,77.60
2017-12-29T10:13:31.030Z,78.30
2017-12-29T10:15:58.662Z,77.80
2017-12-29T10:18:26.261Z,78.30
2017-12-29T10:20:53.871Z,77.20
2017-12-29T10:23:22.216Z,77.90
2017-12-29T10:25:49.802Z,77.80
2017-12-29T10:28:18.158Z,78.30
2017-12-29T10:30:45.749Z,78.30
2017-12-29T10:33:14.120Z,77.50
2017-12-29T10:35:42.492Z,77.30
2017-12-29T10:38:10.859Z,77.00
2017-12-29T10:40:38.455Z,77.10
2017-12-29T10:43:06.064Z,76.10
2017-12-29T10:45:33.637Z,76.60
2017-12-29T10:48:01.242Z,76.50
2017-12-29T10:50:28.874Z,77.40
2017-12-29T10:52:56.470Z,77.80
2017-12-29T10:55:24.430Z,75.10
2017-12-29T10:57:52.014Z,74.60
2017-12-29T11:00:19.615Z,75.10
2017-12-29T11:02:47.206Z,75.80
2017-12-29T11:05:15.552Z,74.10
2017-12-29T11:07:43.153Z,74.10
2017-12-29T11:10:10.744Z,74.70
2017-12-29T11:12:38.336Z,75.30
2017-12-29T11:15:05.934Z,73.20
2017-12-29T11:17:33.519Z,75.40
2017-12-29T11:20:01.105Z,75.00
2017-12-29T11:22:28.696Z,73.80
2017-12-29T11:24:57.076Z,71.50
2017-12-29T11:27:25.436Z,70.60
2017-12-29T11:29:53.028Z,70.60
2017-12-29T11:32:21.373Z,71.90
2017-12-29T11:34:48.957Z,71.80
2017-12-29T11:37:17.308Z,71.30
2017-12-29T11:39:44.902Z,71.30
2017-12-29T11:42:13.290Z,70.10
2017-12-29T11:44:40.907Z,70.00
2017-12-29T11:47:08.487Z,71.20
2017-12-29T11:49:36.078Z,70.50
2017-12-29T11:52:03.669Z,71.20
2017-12-29T11:54:31.254Z,68.70
2017-12-29T11:56:58.856Z,70.10
2017-12-29T11:59:26.457Z,70.50
2017-12-29T12:01:54.051Z,69.60
2017-12-29T12:04:21.624Z,70.40
2017-12-29T12:06:49.988Z,71.60
2017-12-29T12:09:17.567Z,71.50
2017-12-29T12:11:45.923Z,70.10
2017-12-29T12:14:13.504Z,70.10
2017-12-29T12:16:41.873Z,70.60
2017-12-29T12:19:10.242Z,70.50
2017-12-29T12:21:37.835Z,70.50
2017-12-29T12:24:05.426Z,68.80
2017-12-29T12:26:33.013Z,68.10
2017-12-29T12:29:00.604Z,69.50
2017-12-29T12:31:28.959Z,69.10
2017-12-29T12:33:56.592Z,69.10
2017-12-29T12:36:24.194Z,68.80
2017-12-29T12:38:52.588Z,67.90
2017-12-29T12:41:20.186Z,67.90
2017-12-29T12:43:47.849Z,67.40
2017-12-29T12:46:15.433Z,68.60
2017-12-29T12:48:43.033Z,68.60
2017-12-29T12:51:11.427Z,66.90
2017-12-29T12:53:39.026Z,66.80
2017-12-29T12:56:06.610Z,66.90
2017-12-29T12:58:34.198Z,67.40
2017-12-29T13:01:01.792Z,66.30
2017-12-29T13:03:29.440Z,67.70
2017-12-29T13:05:57.046Z,67.90
2017-12-29T13:08:24.690Z,68.30
2017-12-29T13:10:52.264Z,68.10
2017-12-29T13:13:19.891Z,68.00
2017-12-29T13:15:47.600Z,68.70
2017-12-29T13:18:15.177Z,66.80
2017-12-29T13:20:43.535Z,66.20
2017-12-29T13:23:11.130Z,66.20
2017-12-29T13:25:39.506Z,66.80
2017-12-29T13:28:07.835Z,66.50
2017-12-29T13:30:35.434Z,66.50
2017-12-29T13:33:03.777Z,68.40
2017-12-29T13:35:31.378Z,68.40
2017-12-29T13:37:59.730Z,66.60
2017-12-29T13:40:27.312Z,66.50
2017-12-29T13:42:55.711Z,67.20
2017-12-29T13:45:23.286Z,67.20
2017-12-29T13:47:50.864Z,67.40
2017-12-29T13:50:18.452Z,68.70
2017-12-29T13:52:46.050Z,68.50
2017-12-29T13:55:13.629Z,67.30
2017-12-29T13:57:41.233Z,67.90
2017-12-29T14:00:08.841Z,69.10
2017-12-29T14:02:36.444Z,68.80
2017-12-29T14:05:04.017Z,68.20
2017-12-29T14:07:31.600Z,68.10
2017-12-29T14:09:59.952Z,68.10
2017-12-29T14:12:27.554Z,68.10
2017-12-29T14:14:55.141Z,68.80
2017-12-29T14:17:22.758Z,68.80
2017-12-29T14:19:51.134Z,69.40
2017-12-29T14:22:19.487Z,68.80
2017-12-29T14:24:47.088Z,68.70
2017-12-29T14:27:14.690Z,69.30
2017-12-29T14:29:42.278Z,69.00
2017-12-29T14:32:09.887Z,69.90
2017-12-29T14:34:37.502Z,69.90
2017-12-29T14:37:05.113Z,69.10
2017-12-29T14:39:32.712Z,69.20
2017-12-29T14:42:00.301Z,69.50
2017-12-29T14:44:28.663Z,69.50
2017-12-29T14:46:56.266Z,69.50
2017-12-29T14:49:23.828Z,69.40
2017-12-29T14:51:51.445Z,69.00
2017-12-29T14:54:19.043Z,68.20
2017-12-29T14:56:46.630Z,69.80
2017-12-29T14:59:14.212Z,69.30
2017-12-29T15:01:41.791Z,68.40
2017-12-29T15:04:09.378Z,69.40
2017-12-29T15:06:36.951Z,67.60
2017-12-29T15:09:04.568Z,69.40
2017-12-29T15:11:32.146Z,68.70
2017-12-29T15:14:00.512Z,69.30
2017-12-29T15:16:28.119Z,68.70
2017-12-29T15:18:55.718Z,69.00
2017-12-29T15:21:23.309Z,68.70
2017-12-29T15:23:51.655Z,67.80
2017-12-29T15:26:19.270Z,67.80
2017-12-29T15:28:46.851Z,68.40
2017-12-29T15:31:14.425Z,68.20
2017-12-29T15:33:42.018Z,67.50
2017-12-29T15:36:09.640Z,68.90
2017-12-29T15:38:37.249Z,68.20
2017-12-29T15:41:05.591Z,68.80
2017-12-29T15:43:33.218Z,68.80
2017-12-29T15:46:00.840Z,67.00
2017-12-29T15:48:28.446Z,68.00
2017-12-29T15:50:56.984Z,69.10
2017-12-29T15:53:24.560Z,69.10
2017-12-29T15:55:52.170Z,69.70
2017-12-29T15:58:19.756Z,68.80
2017-12-29T16:00:47.379Z,70.00
2017-12-29T16:03:14.994Z,69.60
2017-12-29T16:05:43.332Z,69.10
2017-12-29T16:08:10.912Z,68.90
2017-12-29T16:10:38.509Z,70.30
2017-12-29T16:13:06.865Z,70.30
2017-12-29T16:15:34.458Z,70.30
2017-12-29T16:18:02.065Z,70.40
2017-12-29T16:20:29.663Z,70.40
2017-12-29T16:22:58.027Z,69.70
2017-12-29T16:25:25.634Z,69.70
2017-12-29T16:27:53.228Z,70.20
2017-12-29T16:30:20.826Z,70.90
2017-12-29T16:32:48.433Z,71.50
2017-12-29T16:35:16.094Z,71.40
2017-12-29T16:37:43.695Z,71.60
2017-12-29T16:40:11.284Z,71.90
2017-12-29T16:42:38.864Z,72.20
2017-12-29T16:45:06.483Z,72.20
2017-12-29T16:47:34.862Z,73.20
2017-12-29T16:50:03.235Z,74.50
2017-12-29T16:52:30.853Z,74.50
2017-12-29T16:54:58.435Z,77.70
2017-12-29T16:57:26.022Z,78.60
2017-12-29T16:59:54.372Z,78.30
2017-12-29T17:02:21.947Z,78.30
2017-12-29T17:04:49.516Z,77.60
2017-12-29T17:07:17.100Z,78.50
2017-12-29T17:09:44.744Z,78.10
2017-12-29T17:12:13.118Z,77.20
2017-12-29T17:14:40.721Z,77.20
2017-12-29T17:17:08.322Z,77.60
2017-12-29T17:19:35.934Z,78.60
2017-12-29T17:22:03.516Z,80.80
2017-12-29T17:24:31.132Z,82.20
2017-12-29T17:26:59.525Z,83.50
2017-12-29T17:29:27.874Z,84.20
2017-12-29T17:31:55.916Z,84.20
2017-12-29T17:34:23.501Z,84.40
2017-12-29T17:36:51.095Z,85.00
2017-12-29T17:39:19.468Z,86.40
2017-12-29T17:41:47.824Z,87.50
2017-12-29T17:44:15.417Z,87.50
2017-12-29T17:46:43.018Z,88.40
2017-12-29T17:49:10.653Z,88.60
2017-12-29T17:51:38.236Z,89.30
2017-12-29T17:54:05.808Z,89.40
2017-12-29T17:56:33.399Z,90.20
2017-12-29T17:59:00.986Z,91.00
2017-12-29T18:01:28.609Z,91.70
2017-12-29T18:03:56.409Z,91.70
2017-12-29T18:06:24.784Z,92.30
2017-12-29T18:08:53.133Z,92.30
2017-12-29T18:11:20.763Z,92.30
2017-12-29T18:13:48.344Z,92.50
2017-12-29T18:16:15.946Z,92.20
2017-12-29T18:18:44.314Z,92.30
2017-12-29T18:21:13.472Z,92.30
2017-12-29T18:23:41.066Z,92.30
2017-12-29T18:26:09.445Z,92.30
2017-12-29T18:28:37.809Z,92.30
2017-12-29T18:31:05.406Z,92.20
2017-12-29T18:33:33.101Z,92.10
2017-12-29T18:36:00.720Z,92.10
2017-12-29T18:38:28.305Z,92.20
2017-12-29T18:40:55.897Z,92.20
2017-12-29T18:43:23.517Z,92.30
2017-12-29T18:45:51.100Z,92.50
2017-12-29T18:48:18.688Z,92.70
2017-12-29T18:50:47.094Z,93.50
2017-12-29T18:53:15.479Z,93.90
2017-12-29T18:55:43.831Z,94.20
2017-12-29T18:58:11.425Z,94.20
2017-12-29T19:00:39.786Z,94.60
2017-12-29T19:06:06.928Z,94.70
2017-12-29T19:08:34.499Z,94.80
2017-12-29T19:11:02.123Z,94.90
2017-12-29T19:13:29.741Z,95.00
2017-12-29T19:15:58.085Z,95.10
2017-12-29T19:18:25.681Z,95.10
2017-12-29T19:20:54.039Z,95.50
2017-12-29T19:23:21.644Z,95.20
2017-12-29T19:25:49.342Z,95.10
2017-12-29T19:28:16.948Z,95.20
2017-12-29T19:30:45.291Z,95.30
2017-12-29T19:33:12.876Z,95.30
2017-12-29T19:35:41.232Z,95.60
2017-12-29T19:38:08.849Z,95.30
2017-12-29T19:40:36.442Z,95.40
2017-12-29T19:43:04.027Z,95.70
2017-12-29T19:45:31.645Z,95.70
2017-12-29T19:47:59.230Z,95.90
2017-12-29T19:50:26.850Z,95.80
2017-12-29T19:52:54.454Z,95.90
2017-12-29T19:55:22.048Z,95.90
2017-12-29T19:57:50.466Z,95.90
2017-12-29T20:00:23.821Z,95.90
2017-12-29T20:02:51.436Z,95.90
2017-12-29T20:05:19.022Z,96.00
2017-12-29T20:07:46.618Z,96.10
2017-12-29T20:10:14.975Z,96.40
2017-12-29T20:12:43.338Z,96.40
2017-12-29T20:15:10.957Z,96.40
2017-12-29T20:17:38.550Z,96.50
2017-12-29T20:20:06.152Z,96.40
2017-12-29T20:22:34.504Z,96.40
2017-12-29T20:25:02.093Z,96.40
2017-12-29T20:30:24.114Z,96.20
2017-12-29T20:32:51.713Z,96.20
2017-12-29T20:35:19.314Z,96.00
2017-12-29T20:37:46.919Z,96.00
2017-12-29T20:40:15.324Z,96.00
2017-12-29T20:42:42.921Z,96.00
2017-12-29T20:45:10.509Z,96.00
2017-12-29T20:47:38.100Z,96.00
2017-12-29T20:50:05.703Z,95.90
2017-12-29T20:52:33.302Z,95.90
2017-12-29T20:55:00.929Z,96.00
2017-12-29T20:57:28.524Z,95.90
2017-12-29T20:59:56.137Z,95.90
2017-12-29T21:02:23.734Z,95.70
2017-12-29T21:04:51.328Z,95.90
2017-12-29T21:07:18.912Z,95.90
2017-12-29T21:09:46.503Z,96.00
2017-12-29T21:12:14.122Z,96.10
2017-12-29T21:14:41.714Z,96.10
2017-12-29T21:17:09.306Z,96.10
2017-12-29T21:19:36.926Z,96.00
2017-12-29T21:22:04.519Z,95.80
2017-12-29T21:24:32.141Z,95.70
2017-12-29T21:26:59.722Z,95.50
2017-12-29T21:29:27.373Z,95.40
2017-12-29T21:31:55.132Z,95.30
2017-12-29T21:34:22.737Z,95.30
2017-12-29T21:36:50.334Z,95.40
2017-12-29T21:39:17.949Z,95.10
2017-12-29T21:41:45.546Z,95.30
2017-12-29T21:44:13.136Z,95.20
2017-12-29T21:46:40.728Z,95.20
2017-12-29T21:49:08.296Z,95.00
2017-12-29T21:51:35.944Z,95.00
2017-12-29T21:54:03.550Z,94.80
2017-12-29T21:56:31.143Z,94.50
2017-12-29T21:58:58.722Z,94.30
2017-12-29T22:01:26.308Z,94.30
2017-12-29T22:03:53.883Z,94.20
2017-12-29T22:06:21.510Z,94.40
2017-12-29T22:08:49.133Z,94.00
2017-12-29T22:11:16.731Z,94.00
2017-12-29T22:13:44.309Z,94.10
2017-12-29T22:16:11.937Z,94.00
2017-12-29T22:18:39.591Z,94.00
2017-12-29T22:21:07.169Z,94.00
2017-12-29T22:23:34.757Z,94.10
2017-12-29T22:26:02.368Z,94.00
2017-12-29T22:28:29.953Z,94.40
2017-12-29T22:30:57.681Z,94.50
2017-12-29T22:33:25.263Z,94.60
2017-12-29T22:35:52.837Z,94.50
2017-12-29T22:38:20.416Z,94.80
2017-12-29T22:40:48.014Z,95.00
2017-12-29T22:43:15.646Z,95.00
2017-12-29T22:45:43.237Z,95.00
2017-12-29T22:48:10.821Z,95.10
2017-12-29T22:50:38.397Z,95.10
2017-12-29T22:53:05.984Z,95.00
2017-12-29T22:55:33.570Z,95.10
2017-12-29T22:58:01.158Z,95.20
2017-12-29T23:00:28.763Z,94.80
2017-12-29T23:02:56.357Z,94.80
2017-12-29T23:05:23.929Z,94.70
2017-12-29T23:07:51.512Z,94.50
2017-12-29T23:10:19.110Z,94.40
2017-12-29T23:12:47.475Z,94.90
2017-12-29T23:15:15.060Z,94.70
2017-12-29T23:17:43.438Z,94.60
2017-12-29T23:20:11.780Z,94.30
2017-12-29T23:22:39.370Z,94.30
2017-12-29T23:25:07.734Z,94.10
2017-12-29T23:27:35.322Z,94.40
2017-12-29T23:30:03.661Z,93.30
2017-12-29T23:32:31.231Z,93.30
2017-12-29T23:34:58.848Z,93.10
2017-12-29T23:37:26.423Z,92.70
2017-12-29T23:39:54.007Z,92.50
2017-12-29T23:42:21.605Z,92.60
2017-12-29T23:44:49.966Z,92.70
2017-12-29T23:47:18.334Z,92.90
2017-12-29T23:49:45.905Z,92.90
2017-12-29T23:52:13.526Z,92.60
2017-12-29T23:54:41.113Z,92.40
2017-12-29T23:57:09.506Z,92.40
2017-12-29T23:59:37.872Z,92.70
